createdAt,value
2023-01-13T00:01:00.936Z,8
2023-01-13T00:04:00.925Z,8.3
2023-01-13T00:05:00.997Z,8.1
2023-01-13T00:06:00.958Z,8.2
2023-01-13T00:08:00.990Z,8.1
2023-01-13T00:10:00.919Z,8
2023-01-13T00:11:00.990Z,8.1
2023-01-13T00:13:00.956Z,8.1
2023-01-13T00:15:01.046Z,8.3
2023-01-13T00:16:01.112Z,8.2
2023-01-13T00:18:00.948Z,8.1
2023-01-13T00:20:00.920Z,8.2
2023-01-13T00:21:00.945Z,8.1
2023-01-13T00:24:00.947Z,8.2
2023-01-13T00:33:00.951Z,8.3
2023-01-13T00:34:00.966Z,8.2
2023-01-13T00:35:00.962Z,8.1
2023-01-13T00:36:01.080Z,8.2
2023-01-13T00:39:00.978Z,8.2
2023-01-13T00:41:00.933Z,8.3
2023-01-13T00:46:00.933Z,8.2
2023-01-13T00:47:00.955Z,8.1
2023-01-13T00:50:00.944Z,8.4
2023-01-13T00:52:00.989Z,8.3
2023-01-13T00:59:00.930Z,8.4
2023-01-13T01:00:01.117Z,8.1
2023-01-13T01:01:01.195Z,8.3
2023-01-13T01:06:00.971Z,8.4
2023-01-13T01:08:01.009Z,8.3
2023-01-13T01:10:01.003Z,8
2023-01-13T01:11:00.986Z,8.3
2023-01-13T01:13:00.964Z,8.3
2023-01-13T01:15:01.006Z,8.1
2023-01-13T01:19:00.998Z,8.2
2023-01-13T01:23:00.935Z,8.2
2023-01-13T01:26:00.923Z,8.1
2023-01-13T01:27:00.965Z,8.2
2023-01-13T01:29:00.924Z,8.2
2023-01-13T01:30:01.095Z,8.1
2023-01-13T01:33:00.991Z,8.2
2023-01-13T01:36:00.916Z,8.1
2023-01-13T01:37:00.993Z,8.2
2023-01-13T01:40:01.052Z,8.1
2023-01-13T01:42:00.956Z,8.3
2023-01-13T01:44:00.932Z,8.3
2023-01-13T01:45:01.100Z,8.2
2023-01-13T01:47:00.978Z,8.2
2023-01-13T01:50:00.925Z,8.3
2023-01-13T01:51:00.951Z,8.2
2023-01-13T01:55:00.963Z,8.3
2023-01-13T01:59:00.921Z,8.3
2023-01-13T02:00:01.018Z,8.2
2023-01-13T02:03:00.959Z,8.2
2023-01-13T02:07:00.956Z,8.3
2023-01-13T02:09:00.929Z,8.3
2023-01-13T02:10:00.930Z,8.2
2023-01-13T02:24:00.940Z,8.3
2023-01-13T02:25:00.928Z,8.2
2023-01-13T02:28:00.943Z,8.1
2023-01-13T02:29:01.039Z,8.2
2023-01-13T02:34:00.937Z,8.1
2023-01-13T02:35:01.019Z,8.2
2023-01-13T02:37:00.935Z,8.3
2023-01-13T02:39:00.951Z,8.1
2023-01-13T02:45:00.980Z,8.3
2023-01-13T02:47:00.988Z,8.1
2023-01-13T02:49:00.957Z,8
2023-01-13T02:52:00.920Z,8.1
2023-01-13T02:54:00.905Z,8
2023-01-13T02:55:00.939Z,8.1
2023-01-13T02:59:00.928Z,8.1
2023-01-13T03:01:01.101Z,8.2
2023-01-13T03:04:00.884Z,8.1
2023-01-13T03:05:00.959Z,8.2
2023-01-13T03:12:00.915Z,8.1
2023-01-13T03:13:00.921Z,8
2023-01-13T03:24:00.911Z,8.3
2023-01-13T03:25:00.918Z,8.1
2023-01-13T03:27:00.972Z,8.2
2023-01-13T03:31:00.959Z,8.2
2023-01-13T03:32:00.978Z,8.1
2023-01-13T03:34:00.941Z,8.3
2023-01-13T03:38:00.924Z,8.1
2023-01-13T03:39:00.918Z,8.3
2023-01-13T03:42:00.905Z,8.1
2023-01-13T03:43:00.942Z,8.3
2023-01-13T03:45:00.990Z,8.3
2023-01-13T03:47:00.920Z,8.3
2023-01-13T03:49:00.985Z,8.3
2023-01-13T03:52:00.906Z,8.2
2023-01-13T03:53:00.929Z,8.3
2023-01-13T03:56:00.904Z,8.3
2023-01-13T03:57:00.956Z,8.2
2023-01-13T03:58:00.982Z,8.3
2023-01-13T03:59:00.964Z,8.2
2023-01-13T04:01:00.988Z,8.3
2023-01-13T04:02:01.063Z,8.2
2023-01-13T04:05:00.936Z,8.2
2023-01-13T04:07:00.933Z,8.2
2023-01-13T04:09:00.938Z,8.2
2023-01-13T04:15:01.094Z,8.3
2023-01-13T04:17:00.977Z,8.2
2023-01-13T04:20:00.938Z,8.2
2023-01-13T04:23:00.982Z,8.1
2023-01-13T04:27:01.024Z,8.1
2023-01-13T04:34:00.942Z,8.2
2023-01-13T04:35:00.917Z,8.1
2023-01-13T04:36:00.928Z,8.2
2023-01-13T04:39:00.924Z,8.2
2023-01-13T04:40:00.928Z,8.1
2023-01-13T04:43:00.938Z,8.2
2023-01-13T04:45:01.045Z,8.2
2023-01-13T04:48:00.927Z,8.2
2023-01-13T04:50:00.928Z,8
2023-01-13T04:51:00.948Z,8.2
2023-01-13T04:55:00.972Z,8
2023-01-13T04:59:00.930Z,8.2
2023-01-13T05:00:01.005Z,8.1
2023-01-13T05:02:01.014Z,8.2
2023-01-13T05:04:00.932Z,8.1
2023-01-13T05:06:00.904Z,8.2
2023-01-13T05:08:01.041Z,8.1
2023-01-13T05:09:00.949Z,8.2
2023-01-13T05:11:00.991Z,8.2
2023-01-13T05:15:00.996Z,8
2023-01-13T05:18:00.911Z,8.1
2023-01-13T05:26:00.922Z,8
2023-01-13T05:27:00.966Z,8.1
2023-01-13T05:29:00.928Z,8.1
2023-01-13T05:32:00.992Z,8.2
2023-01-13T05:34:00.913Z,8.1
2023-01-13T05:35:00.921Z,8
2023-01-13T05:37:00.977Z,8.1
2023-01-13T05:39:00.966Z,7.9
2023-01-13T05:40:00.933Z,8.1
2023-01-13T05:42:00.932Z,8
2023-01-13T05:44:01.078Z,8
2023-01-13T05:45:00.976Z,8.2
2023-01-13T05:46:01.075Z,8
2023-01-13T05:49:00.950Z,8.1
2023-01-13T05:50:00.984Z,8
2023-01-13T05:52:00.984Z,8.1
2023-01-13T05:58:00.911Z,8.1
2023-01-13T05:59:00.986Z,8.2
2023-01-13T06:02:00.937Z,8.1
2023-01-13T06:03:01.003Z,8
2023-01-13T06:08:00.916Z,8.1
2023-01-13T06:09:00.965Z,8
2023-01-13T06:15:00.980Z,7.9
2023-01-13T06:17:00.999Z,8.1
2023-01-13T06:20:00.950Z,7.8
2023-01-13T06:21:00.968Z,8
2023-01-13T06:23:00.972Z,8.1
2023-01-13T06:24:00.971Z,7.8
2023-01-13T06:28:00.977Z,8
2023-01-13T06:30:00.999Z,7.9
2023-01-13T06:33:00.918Z,7.9
2023-01-13T06:34:00.937Z,7.8
2023-01-13T06:36:00.934Z,7.9
2023-01-13T06:44:00.955Z,8
2023-01-13T06:49:00.947Z,7.9
2023-01-13T06:50:00.982Z,8
2023-01-13T06:52:00.917Z,7.9
2023-01-13T06:53:00.967Z,8.1
2023-01-13T06:55:00.947Z,8
2023-01-13T06:56:00.976Z,8.1
2023-01-13T06:57:00.981Z,8
2023-01-13T06:59:00.971Z,8.1
2023-01-13T07:02:01.036Z,8
2023-01-13T07:03:00.935Z,8.1
2023-01-13T07:04:00.931Z,8
2023-01-13T07:05:00.989Z,8.1
2023-01-13T07:08:00.961Z,8.1
2023-01-13T07:09:00.945Z,8
2023-01-13T07:10:00.940Z,8.1
2023-01-13T07:13:01.009Z,8.2
2023-01-13T07:14:01.016Z,8.1
2023-01-13T07:15:01.042Z,8
2023-01-13T07:18:01.039Z,8
2023-01-13T07:19:00.989Z,8.1
2023-01-13T07:21:00.968Z,8.2
2023-01-13T07:23:00.924Z,8
2023-01-13T07:24:00.987Z,8.1
2023-01-13T07:25:00.968Z,8.2
2023-01-13T07:28:00.948Z,8.1
2023-01-13T07:29:00.958Z,8.2
2023-01-13T07:38:00.992Z,8.3
2023-01-13T07:40:00.927Z,8.3
2023-01-13T07:41:00.949Z,8.1
2023-01-13T07:43:00.964Z,8
2023-01-13T07:44:00.938Z,8.1
2023-01-13T07:46:01.019Z,8
2023-01-13T07:49:00.982Z,8.1
2023-01-13T07:51:00.970Z,8
2023-01-13T07:53:00.976Z,8
2023-01-13T07:56:00.924Z,7.9
2023-01-13T07:57:00.965Z,8
2023-01-13T07:59:00.994Z,7.9
2023-01-13T08:00:00.990Z,8.1
2023-01-13T08:04:00.961Z,8.1
2023-01-13T08:05:00.966Z,8
2023-01-13T08:09:00.974Z,8.1
2023-01-13T08:14:00.939Z,8.1
2023-01-13T08:18:00.907Z,8
2023-01-13T08:19:01.099Z,8.1
2023-01-13T08:21:01.011Z,8
2023-01-13T08:23:00.954Z,8.1
2023-01-13T08:25:00.948Z,8.1
2023-01-13T08:27:00.986Z,8.1
2023-01-13T08:33:00.937Z,8.2
2023-01-13T08:34:00.933Z,8.1
2023-01-13T08:36:00.909Z,8.1
2023-01-13T08:37:01.015Z,8.2
2023-01-13T08:39:01.024Z,8.1
2023-01-13T08:44:00.939Z,8.3
2023-01-13T08:45:00.967Z,8.2
2023-01-13T08:46:01.032Z,8.3
2023-01-13T08:51:00.928Z,8.4
2023-01-13T08:52:00.964Z,8.3
2023-01-13T08:53:00.994Z,8.1
2023-01-13T08:55:00.963Z,7.9
2023-01-13T08:57:00.997Z,7.5
2023-01-13T08:59:01.019Z,7.3
2023-01-13T09:00:01.076Z,7.2
2023-01-13T09:03:00.963Z,7
2023-01-13T09:04:01.008Z,6.9
2023-01-13T09:05:00.964Z,6.8
2023-01-13T09:07:00.982Z,6.8
2023-01-13T09:10:00.917Z,6.7
2023-01-13T09:11:00.955Z,6.6
2023-01-13T09:14:03.253Z,6.4
2023-01-13T09:17:00.985Z,6.5
2023-01-13T09:19:00.946Z,6.5
2023-01-13T09:21:00.997Z,6.4
2023-01-13T09:27:01.043Z,6.3
2023-01-13T09:29:00.956Z,6.2
2023-01-13T09:31:00.962Z,6.4
2023-01-13T09:33:00.937Z,6.2
2023-01-13T09:34:01.058Z,6.3
2023-01-13T09:36:01.002Z,6.2
2023-01-13T09:37:01.101Z,6.3
2023-01-13T09:39:00.969Z,6.3
2023-01-13T09:40:00.986Z,6.2
2023-01-13T09:43:00.974Z,6.1
2023-01-13T09:45:01.021Z,6.3
2023-01-13T09:47:01.029Z,6.4
2023-01-13T09:50:00.945Z,6.2
2023-01-13T09:51:01.107Z,6.4
2023-01-13T09:53:01.025Z,6.4
2023-01-13T09:57:01.104Z,6.4
2023-01-13T10:02:01.047Z,6.5
2023-01-13T10:05:01.145Z,6.6
2023-01-13T10:07:00.945Z,6.6
2023-01-13T10:09:01.005Z,6.7
2023-01-13T10:11:01.137Z,6.8
2023-01-13T10:14:00.985Z,6.7
2023-01-13T10:15:01.034Z,6.9
2023-01-13T10:17:01.014Z,6.8
2023-01-13T10:19:00.947Z,7
2023-01-13T10:20:00.945Z,6.9
2023-01-13T10:21:00.986Z,7
2023-01-13T10:23:00.996Z,6.9
2023-01-13T10:25:01.007Z,7
2023-01-13T10:27:00.985Z,7.1
2023-01-13T10:31:01.041Z,6.9
2023-01-13T10:32:00.969Z,7
2023-01-13T10:37:01.081Z,7.1
2023-01-13T10:38:01.135Z,7
2023-01-13T10:40:00.927Z,7.1
2023-01-13T10:41:01.021Z,7
2023-01-13T10:44:00.960Z,7.1
2023-01-13T10:45:01.133Z,7
2023-01-13T10:47:01.027Z,7
2023-01-13T10:50:00.952Z,7
2023-01-13T10:51:01.017Z,7.1
2023-01-13T10:53:00.935Z,7.1
2023-01-13T10:54:00.993Z,7.2
2023-01-13T10:56:00.931Z,7.2
2023-01-13T10:57:01.030Z,7
2023-01-13T11:01:00.996Z,7.2
2023-01-13T11:03:01.035Z,7.1
2023-01-13T11:05:01.055Z,7.1
2023-01-13T11:07:01.027Z,7.2
2023-01-13T11:10:00.956Z,7.1
2023-01-13T11:12:00.950Z,7.2
2023-01-13T11:14:00.986Z,7
2023-01-13T11:15:01.103Z,7.1
2023-01-13T11:17:00.981Z,7.1
2023-01-13T11:19:00.982Z,7.1
2023-01-13T11:25:00.997Z,6.9
2023-01-13T11:27:01.018Z,6.9
2023-01-13T11:31:01.021Z,7
2023-01-13T11:33:00.972Z,6.9
2023-01-13T11:36:00.989Z,6.8
2023-01-13T11:37:00.974Z,7
2023-01-13T11:39:00.920Z,7.1
2023-01-13T11:40:00.951Z,7
2023-01-13T11:41:00.974Z,7.2
2023-01-13T11:43:01.068Z,7.1
2023-01-13T11:45:01.078Z,7.2
2023-01-13T11:47:00.988Z,7.3
2023-01-13T11:48:00.954Z,7.5
2023-01-13T11:50:00.910Z,7.7
2023-01-13T11:51:00.929Z,7.6
2023-01-13T11:54:01.013Z,7.5
2023-01-13T11:57:00.979Z,7.6
2023-01-13T12:02:00.999Z,7.3
2023-01-13T12:03:00.973Z,7.4
2023-01-13T12:04:00.940Z,7.3
2023-01-13T12:05:00.949Z,7.4
2023-01-13T12:06:00.996Z,7.3
2023-01-13T12:09:00.935Z,7.2
2023-01-13T12:10:01.554Z,7.3
2023-01-13T12:13:00.963Z,7.1
2023-01-13T12:14:00.998Z,7.3
2023-01-13T12:15:01.136Z,7.2
2023-01-13T12:17:01.370Z,7.2
2023-01-13T12:19:00.948Z,7.4
2023-01-13T12:21:00.930Z,7.6
2023-01-13T12:24:00.962Z,7.9
2023-01-13T12:26:00.953Z,8
2023-01-13T12:28:00.948Z,8.2
2023-01-13T12:29:01.054Z,8.1
2023-01-13T12:30:01.119Z,8.2
2023-01-13T12:32:00.967Z,8.3
2023-01-13T12:33:00.991Z,8.2
2023-01-13T12:34:01.004Z,8.3
2023-01-13T12:37:00.999Z,8.3
2023-01-13T12:39:00.924Z,8.1
2023-01-13T12:42:01.017Z,8.2
2023-01-13T12:45:00.995Z,8.1
2023-01-13T12:47:01.020Z,8
2023-01-13T12:50:00.967Z,7.9
2023-01-13T12:51:00.966Z,7.8
2023-01-13T12:53:00.936Z,7.7
2023-01-13T12:55:00.958Z,7.5
2023-01-13T12:57:01.041Z,7.4
2023-01-13T12:59:00.920Z,7.6
2023-01-13T13:00:01.073Z,7.4
2023-01-13T13:02:00.980Z,7.3
2023-01-13T13:03:00.991Z,7.4
2023-01-13T13:04:00.918Z,7.2
2023-01-13T13:06:00.917Z,7.1
2023-01-13T13:09:03.418Z,7.2
2023-01-13T13:10:00.977Z,7.1
2023-01-13T13:12:00.901Z,7.1
2023-01-13T13:14:00.906Z,7.3
2023-01-13T13:15:03.164Z,7.2
2023-01-13T13:17:01.100Z,7.2
2023-01-13T13:19:00.942Z,7.3
2023-01-13T13:20:00.957Z,7.2
2023-01-13T13:21:03.727Z,7.4
2023-01-13T13:23:00.966Z,7.3
2023-01-13T13:26:00.969Z,7.4
2023-01-13T13:27:02.133Z,7.3
2023-01-13T13:36:00.934Z,7.4
2023-01-13T13:37:00.991Z,7.3
2023-01-13T13:39:00.962Z,7.4
2023-01-13T13:43:01.026Z,7.4
2023-01-13T13:48:00.926Z,7.5
2023-01-13T13:49:00.961Z,7.3
2023-01-13T13:51:00.988Z,7.4
2023-01-13T13:53:00.953Z,7.3
2023-01-13T13:58:00.985Z,7.4
2023-01-13T13:59:00.945Z,7.2
2023-01-13T14:00:01.008Z,7.3
2023-01-13T14:03:00.963Z,7.2
2023-01-13T14:04:00.914Z,7.3
2023-01-13T14:08:00.914Z,7.5
2023-01-13T14:10:00.918Z,7.3
2023-01-13T14:12:00.872Z,7.4
2023-01-13T14:13:00.879Z,7.3
2023-01-13T14:17:00.929Z,7.2
2023-01-13T14:20:00.913Z,7
2023-01-13T14:21:00.942Z,7.1
2023-01-13T14:26:00.886Z,7
2023-01-13T14:27:00.934Z,7.1
2023-01-13T14:29:00.874Z,7.1
2023-01-13T14:31:00.960Z,7
2023-01-13T14:33:00.892Z,7.1
2023-01-13T14:35:00.973Z,6.9
2023-01-13T14:37:00.956Z,7
2023-01-13T14:39:00.882Z,7.1
2023-01-13T14:40:00.900Z,6.9
2023-01-13T14:42:00.845Z,7.1
2023-01-13T14:43:00.876Z,6.9
2023-01-13T14:45:00.936Z,6.9
2023-01-13T14:47:00.919Z,6.8
2023-01-13T14:51:00.871Z,6.8
2023-01-13T14:54:00.847Z,6.7
2023-01-13T14:56:00.832Z,6.6
2023-01-13T14:57:00.860Z,6.5
2023-01-13T15:00:00.977Z,6.6
2023-01-13T15:03:00.939Z,6.5
2023-01-13T15:05:00.877Z,6.5
2023-01-13T15:07:00.890Z,6.6
2023-01-13T15:10:00.838Z,6.4
2023-01-13T15:11:00.879Z,6.6
2023-01-13T15:15:01.069Z,6.5
2023-01-13T15:17:00.913Z,6.5
2023-01-13T15:19:00.850Z,6.5
2023-01-13T15:23:00.921Z,6.6
2023-01-13T15:25:00.842Z,6.4
2023-01-13T15:27:00.889Z,6.5
2023-01-13T15:29:00.844Z,6.6
2023-01-13T15:30:01.020Z,6.4
2023-01-13T15:32:00.985Z,6.5
2023-01-13T15:34:00.881Z,6.5
2023-01-13T15:37:00.956Z,6.3
2023-01-13T15:40:00.848Z,6.4
2023-01-13T15:42:00.920Z,6.2
2023-01-13T15:44:00.941Z,6.2
2023-01-13T15:45:00.964Z,6.3
2023-01-13T15:47:00.872Z,6.1
2023-01-13T15:48:00.878Z,6
2023-01-13T15:52:00.859Z,5.9
2023-01-13T15:55:00.847Z,5.7
2023-01-13T16:00:00.894Z,5.6
2023-01-13T16:01:00.905Z,5.5
2023-01-13T16:03:01.046Z,5.5
2023-01-13T16:06:00.961Z,5.4
2023-01-13T16:08:00.883Z,5.2
2023-01-13T16:09:02.435Z,5.3
2023-01-13T16:12:00.860Z,5.1
2023-01-13T16:14:00.904Z,5.2
2023-01-13T16:15:00.945Z,5.1
2023-01-13T16:20:00.961Z,4.9
2023-01-13T16:22:00.895Z,4.9
2023-01-13T16:23:00.920Z,5
2023-01-13T16:25:00.897Z,5
2023-01-13T16:28:00.886Z,4.8
2023-01-13T16:30:01.098Z,4.6
2023-01-13T16:34:00.984Z,4.6
2023-01-13T16:35:01.147Z,4.7
2023-01-13T16:37:00.990Z,4.8
2023-01-13T16:39:00.944Z,4.8
2023-01-13T16:40:00.971Z,4.7
2023-01-13T16:42:00.934Z,4.5
2023-01-13T16:44:00.951Z,4.6
2023-01-13T16:45:01.020Z,4.5
2023-01-13T16:47:01.002Z,4.5
2023-01-13T16:51:00.934Z,4.3
2023-01-13T16:54:01.066Z,4.4
2023-01-13T16:57:01.045Z,4.4
2023-01-13T16:59:00.991Z,4.5
2023-01-13T17:00:01.180Z,4.4
2023-01-13T17:03:00.976Z,4.6
2023-01-13T17:05:01.032Z,4.6
2023-01-13T17:08:00.976Z,4.7
2023-01-13T17:09:01.029Z,4.6
2023-01-13T17:13:13.577Z,4.5
2023-01-13T17:15:01.017Z,4.7
2023-01-13T17:23:01.057Z,4.8
2023-01-13T17:25:00.952Z,4.9
2023-01-13T17:27:00.973Z,4.7
2023-01-13T17:29:00.984Z,5
2023-01-13T17:30:01.000Z,4.9
2023-01-13T17:35:00.945Z,5.1
2023-01-13T17:37:00.984Z,5
2023-01-13T17:38:00.993Z,5.1
2023-01-13T17:39:01.014Z,5.3
2023-01-13T17:43:00.957Z,5.4
2023-01-13T17:45:01.074Z,5.4
2023-01-13T17:51:00.932Z,5.5
2023-01-13T17:52:00.963Z,5.4
2023-01-13T17:55:00.960Z,5.5
2023-01-13T17:56:01.058Z,5.6
2023-01-13T17:58:00.980Z,5.5
2023-01-13T18:01:01.062Z,5.5
2023-01-13T18:02:01.052Z,5.7
2023-01-13T18:03:01.010Z,5.5
2023-01-13T18:04:00.973Z,5.7
2023-01-13T18:05:01.024Z,5.6
2023-01-13T18:09:00.991Z,5.7
2023-01-13T18:13:00.928Z,5.7
2023-01-13T18:14:00.946Z,5.6
2023-01-13T18:15:00.956Z,5.8
2023-01-13T18:16:00.972Z,5.6
2023-01-13T18:20:00.928Z,5.7
2023-01-13T18:21:00.962Z,5.6
2023-01-13T18:22:01.056Z,5.7
2023-01-13T18:26:00.934Z,5.8
2023-01-13T18:27:01.015Z,5.6
2023-01-13T18:29:00.978Z,5.8
2023-01-13T18:30:01.109Z,5.7
2023-01-13T18:32:01.185Z,5.7
2023-01-13T18:33:00.973Z,5.6
2023-01-13T18:35:05.922Z,5.6
2023-01-13T18:37:00.964Z,5.7
2023-01-13T18:38:01.095Z,5.6
2023-01-13T18:41:00.956Z,5.6
2023-01-13T18:49:01.000Z,5.5
2023-01-13T18:51:01.033Z,5.7
2023-01-13T18:53:01.350Z,5.6
2023-01-13T18:55:00.938Z,5.4
2023-01-13T18:57:01.019Z,5.5
2023-01-13T18:59:00.965Z,5.4
2023-01-13T19:02:01.054Z,5.5
2023-01-13T19:04:00.917Z,5.5
2023-01-13T19:05:00.940Z,5.4
2023-01-13T19:07:01.069Z,5.5
2023-01-13T19:10:00.958Z,5.5
2023-01-13T19:12:00.973Z,5.3
2023-01-13T19:13:00.972Z,5.4
2023-01-13T19:15:01.060Z,5.3
2023-01-13T19:18:00.909Z,5.3
2023-01-13T19:21:01.020Z,5.3
2023-01-13T19:24:00.911Z,5.4
2023-01-13T19:31:01.025Z,5.2
2023-01-13T19:33:00.961Z,5.5
2023-01-13T19:35:01.015Z,5.4
2023-01-13T19:37:00.963Z,5.4
2023-01-13T19:39:00.982Z,5.3
2023-01-13T19:41:00.981Z,5.4
2023-01-13T19:43:00.955Z,5.4
2023-01-13T19:46:00.914Z,5.5
2023-01-13T19:48:01.074Z,5.4
2023-01-13T19:50:00.960Z,5.4
2023-01-13T19:53:00.921Z,5.7
2023-01-13T19:54:00.950Z,5.4
2023-01-13T19:57:00.949Z,5.5
2023-01-13T19:58:01.030Z,5.4
2023-01-13T20:03:01.023Z,5.3
2023-01-13T20:08:01.017Z,5.5
2023-01-13T20:13:00.931Z,5.5
2023-01-13T20:16:00.993Z,5.4
2023-01-13T20:18:00.895Z,5.5
2023-01-13T20:20:00.934Z,5.4
2023-01-13T20:21:00.966Z,5.5
2023-01-13T20:22:00.952Z,5.4
2023-01-13T20:25:00.959Z,5.5
2023-01-13T20:28:00.901Z,5.6
2023-01-13T20:29:00.919Z,5.5
2023-01-13T20:32:00.918Z,5.4
2023-01-13T20:33:00.919Z,5.5
2023-01-13T20:38:00.980Z,5.7
2023-01-13T20:40:00.955Z,5.6
2023-01-13T20:41:00.997Z,5.7
2023-01-13T20:46:00.976Z,5.6
2023-01-13T20:48:00.957Z,5.7
2023-01-13T20:50:01.001Z,5.7
2023-01-13T20:52:00.956Z,5.7
2023-01-13T20:54:00.979Z,5.8
2023-01-13T20:56:00.994Z,5.6
2023-01-13T20:58:00.936Z,5.7
2023-01-13T20:59:00.965Z,5.6
2023-01-13T21:01:01.066Z,5.7
2023-01-13T21:03:00.951Z,5.7
2023-01-13T21:05:00.931Z,5.6
2023-01-13T21:06:00.928Z,5.7
2023-01-13T21:07:01.068Z,5.6
2023-01-13T21:09:00.943Z,5.8
2023-01-13T21:10:01.036Z,5.7
2023-01-13T21:12:00.967Z,5.6
2023-01-13T21:16:01.096Z,5.7
2023-01-13T21:17:01.033Z,5.6
2023-01-13T21:19:00.967Z,5.7
2023-01-13T21:21:01.063Z,5.6
2023-01-13T21:26:01.045Z,5.7
2023-01-13T21:28:01.101Z,5.8
2023-01-13T21:32:02.323Z,5.9
2023-01-13T21:36:01.109Z,6
2023-01-13T21:40:01.167Z,5.9
2023-01-13T21:44:00.991Z,6
2023-01-13T21:45:00.975Z,5.9
2023-01-13T21:50:00.952Z,6
2023-01-13T21:52:00.927Z,5.9
2023-01-13T21:53:00.978Z,5.7
2023-01-13T21:55:00.950Z,6
2023-01-13T21:57:00.980Z,5.8
2023-01-13T21:59:00.964Z,6
2023-01-13T22:02:23.537Z,5.9
2023-01-13T22:04:01.010Z,5.8
2023-01-13T22:07:00.988Z,6
2023-01-13T22:08:00.972Z,5.9
2023-01-13T22:10:00.986Z,5.9
2023-01-13T22:12:00.952Z,5.8
2023-01-13T22:14:01.008Z,6.1
2023-01-13T22:15:00.989Z,5.9
2023-01-13T22:17:00.998Z,6
2023-01-13T22:19:01.014Z,5.9
2023-01-13T22:21:00.943Z,5.6
2023-01-13T22:22:00.933Z,5.9
2023-01-13T22:23:01.010Z,6
2023-01-13T22:25:00.916Z,5.9
2023-01-13T22:27:00.953Z,5.8
2023-01-13T22:32:01.082Z,5.7
2023-01-13T22:35:00.930Z,5.9
2023-01-13T22:36:00.945Z,5.7
2023-01-13T22:37:00.985Z,5.9
2023-01-13T22:38:00.966Z,5.8
2023-01-13T22:40:00.944Z,5.7
2023-01-13T22:42:00.994Z,5.9
2023-01-13T22:43:01.019Z,5.7
2023-01-13T22:44:01.083Z,5.8
2023-01-13T22:45:01.120Z,5.9
2023-01-13T22:48:01.041Z,5.7
2023-01-13T22:52:00.911Z,5.8
2023-01-13T22:53:00.959Z,5.7
2023-01-13T22:55:00.962Z,5.8
2023-01-13T22:58:00.932Z,5.8
2023-01-13T22:59:01.032Z,5.7
2023-01-13T23:02:00.915Z,5.8
2023-01-13T23:03:00.952Z,5.7
2023-01-13T23:04:01.015Z,5.9
2023-01-13T23:05:00.962Z,5.8
2023-01-13T23:07:01.093Z,5.8
2023-01-13T23:09:00.945Z,5.6
2023-01-13T23:10:00.973Z,5.8
2023-01-13T23:12:00.930Z,5.7
2023-01-13T23:13:00.980Z,5.5
2023-01-13T23:15:01.168Z,5.5
2023-01-13T23:17:00.977Z,5.5
2023-01-13T23:18:00.913Z,5.6
2023-01-13T23:20:00.951Z,5.5
2023-01-13T23:21:00.954Z,5.4
2023-01-13T23:23:00.943Z,5.5
2023-01-13T23:24:00.958Z,5.4
2023-01-13T23:25:00.968Z,5.5
2023-01-13T23:27:00.995Z,5.4
2023-01-13T23:29:01.057Z,5.4
2023-01-13T23:30:01.076Z,5.3
2023-01-13T23:35:00.982Z,5.4
2023-01-13T23:38:00.946Z,5.4
2023-01-13T23:39:00.964Z,5.3
2023-01-13T23:40:01.025Z,5.1
2023-01-13T23:41:01.090Z,5.3
2023-01-13T23:44:01.002Z,5
2023-01-13T23:45:01.029Z,5.2
2023-01-13T23:49:00.940Z,5
2023-01-13T23:50:01.004Z,4.9
2023-01-13T23:52:00.931Z,4.9
2023-01-13T23:53:00.932Z,5
2023-01-13T23:54:00.950Z,5.1
2023-01-13T23:59:00.991Z,5
